Time;durP1;ratioP1;P1;durP2;ratioP2;P2;SDS_P1;SDS_P2;PMS_P1;PMS_P2;Temp;Humidity;BMP_temperature;BMP_pressure;BME280_temperature;BME280_humidity;BME280_pressure;Samples;Min_cycle;Max_cycle;Signal;HPM_P1;HPM_P2
2022/01/30 00:00:09;;;;;;;13.70;3.37;;;;;;;11.17;45.01;101737.56;686730;28;1207;-84
2022/01/30 00:00:31;;;;;;;12.85;3.20;;;;;;;11.10;45.30;101744.28;686922;28;1125;-84
2022/01/30 00:00:52;;;;;;;12.63;3.75;;;;;;;11.07;45.27;101749.34;690650;28;1333;-84
2022/01/30 00:01:13;;;;;;;14.40;3.83;;;;;;;11.03;45.26;101746.56;685341;28;1291;-84
2022/01/30 00:01:33;;;;;;;15.40;3.90;;;;;;;10.86;45.57;101736.28;685115;28;1694;-84
2022/01/30 00:01:54;;;;;;;14.70;3.63;;;;;;;10.86;45.41;101741.53;687914;28;1259;-85
2022/01/30 00:02:15;;;;;;;13.40;3.20;;;;;;;10.92;45.67;101744.41;687717;28;1773;-84
2022/01/30 00:02:36;;;;;;;12.45;3.20;;;;;;;11.00;45.32;101741.22;687535;28;1219;-85
2022/01/30 00:02:56;;;;;;;12.88;3.20;;;;;;;10.91;45.19;101741.72;686638;28;1340;-84
2022/01/30 00:03:17;;;;;;;13.17;3.43;;;;;;;10.95;45.46;101762.78;690401;28;1314;-85
2022/01/30 00:03:37;;;;;;;14.80;3.58;;;;;;;10.74;45.49;101754.06;685312;28;1174;-84
2022/01/30 00:03:58;;;;;;;15.52;4.05;;;;;;;10.83;45.38;101746.63;685221;28;1134;-85
2022/01/30 00:04:18;;;;;;;14.43;4.07;;;;;;;10.74;45.49;101748.84;687930;28;1302;-84
2022/01/30 00:04:39;;;;;;;12.38;4.00;;;;;;;10.72;45.70;101740.03;685531;28;792;-84
2022/01/30 00:04:59;;;;;;;12.25;3.17;;;;;;;10.85;45.60;101742.34;684838;28;1169;-85
2022/01/30 00:05:20;;;;;;;14.17;3.20;;;;;;;10.92;45.61;101739.16;682574;29;1186;-84
2022/01/30 00:05:41;;;;;;;14.77;3.25;;;;;;;11.00;45.46;101759.50;682800;28;804;-84
2022/01/30 00:06:02;;;;;;;14.00;3.40;;;;;;;10.75;45.42;101761.06;685332;28;1290;-84
2022/01/30 00:06:23;;;;;;;14.73;4.10;;;;;;;10.71;45.56;101738.25;684399;28;1871;-84
2022/01/30 00:06:43;;;;;;;16.08;4.40;;;;;;;10.77;45.59;101759.41;685327;28;1206;-84
2022/01/30 00:07:04;;;;;;;17.07;4.20;;;;;;;10.68;45.74;101745.13;687931;28;1223;-85
2022/01/30 00:07:25;;;;;;;16.17;3.55;;;;;;;10.79;45.79;101742.97;688632;28;1130;-84
2022/01/30 00:07:45;;;;;;;14.27;3.37;;;;;;;10.79;45.42;101734.25;688041;28;1304;-84
2022/01/30 00:08:06;;;;;;;9.95;3.10;;;;;;;10.77;45.63;101734.22;687872;28;1243;-85
2022/01/30 00:08:28;;;;;;;12.47;3.37;;;;;;;10.63;45.80;101736.19;687924;28;821;-85
2022/01/30 00:08:49;;;;;;;13.98;3.60;;;;;;;10.75;45.75;101753.25;685418;28;1287;-84
2022/01/30 00:09:17;;;;;;;16.55;3.90;;;;;;;10.69;45.78;101762.56;687837;28;1217;-84
2022/01/30 00:09:38;;;;;;;10.30;3.03;;;;;;;10.58;45.97;101742.97;690003;28;1150;-84
2022/01/30 00:09:58;;;;;;;7.80;2.80;;;;;;;10.64;46.28;101755.38;687032;28;1082;-85
2022/01/30 00:10:19;;;;;;;8.55;2.60;;;;;;;10.58;46.45;101750.78;685381;28;1072;-85
2022/01/30 00:10:41;;;;;;;10.75;2.80;;;;;;;10.69;45.84;101757.34;685456;28;765;-84
2022/01/30 00:11:09;;;;;;;13.07;2.72;;;;;;;10.80;45.57;101765.66;686570;28;1120;-84
2022/01/30 00:11:34;;;;;;;10.77;2.88;;;;;;;10.79;45.65;101757.75;686780;28;1935;-85
2022/01/30 00:11:59;;;;;;;14.40;3.35;;;;;;;10.76;45.82;101753.28;687598;28;1910;-84
2022/01/30 00:12:28;;;;;;;18.30;3.92;;;;;;;10.73;45.73;101747.03;687729;28;1489;-84
2022/01/30 00:12:54;;;;;;;22.52;4.45;;;;;;;10.83;45.62;101765.78;688008;28;1354;-85
2022/01/30 00:13:17;;;;;;;18.42;3.53;;;;;;;10.68;45.91;101768.63;690544;28;1177;-83
2022/01/30 00:13:37;;;;;;;15.70;3.53;;;;;;;10.79;45.82;101763.88;693415;28;1206;-85
2022/01/30 00:14:00;;;;;;;13.90;3.33;;;;;;;10.68;45.60;101744.22;694396;28;1374;-84
2022/01/30 00:14:22;;;;;;;14.77;3.58;;;;;;;10.61;45.95;101756.13;693302;28;1262;-84
2022/01/30 00:14:43;;;;;;;12.65;3.15;;;;;;;10.53;46.14;101774.09;685134;28;1549;-84
2022/01/30 00:15:04;;;;;;;11.60;3.03;;;;;;;10.51;46.12;101756.56;687973;28;1139;-84
2022/01/30 00:15:38;;;;;;;8.87;2.80;;;;;;;10.52;46.33;101760.94;690751;28;996;-84
2022/01/30 00:16:04;;;;;;;13.35;3.42;;;;;;;10.69;45.96;101773.03;691768;28;1202;-84
2022/01/30 00:16:29;;;;;;;17.48;3.70;;;;;;;10.69;46.15;101773.03;694329;28;1212;-85
2022/01/30 00:16:57;;;;;;;17.60;4.20;;;;;;;10.66;46.04;101766.78;690774;28;856;-85
2022/01/30 00:17:23;;;;;;;16.75;4.30;;;;;;;10.61;45.94;101761.34;685195;28;1051;-85
2022/01/30 00:17:51;;;;;;;14.77;3.65;;;;;;;10.73;46.01;101768.81;688144;28;1199;-84
2022/01/30 00:18:29;;;;;;;15.77;3.30;;;;;;;10.69;46.09;101772.13;688020;28;972;-85
2022/01/30 00:19:16;;;;;;;13.57;3.40;;;;;;;10.59;46.18;101781.28;690613;28;827;-84
2022/01/30 00:19:45;;;;;;;16.23;4.00;;;;;;;10.58;46.23;101768.16;687937;28;913;-84
2022/01/30 00:20:12;;;;;;;15.27;3.78;;;;;;;10.59;46.29;101769.94;687862;28;1236;-85
2022/01/30 00:20:35;;;;;;;11.15;2.70;;;;;;;10.66;46.17;101791.16;688001;28;1090;-84
2022/01/30 00:21:50;;;;;;;21.17;3.72;;;;;;;10.58;46.31;101781.19;682017;29;1681;-84
2022/01/30 00:22:39;;;;;;;20.90;3.92;;;;;;;10.54;46.21;101783.69;682348;29;1289;-84
2022/01/30 00:23:11;;;;;;;16.45;4.20;;;;;;;10.55;46.32;101780.25;685016;28;1102;-85
2022/01/30 00:23:34;;;;;;;11.52;3.10;;;;;;;10.50;46.23;101780.88;683282;28;1101;-84
2022/01/30 00:24:14;;;;;;;9.77;2.80;;;;;;;10.47;46.58;101796.38;691107;28;1120;-84
2022/01/30 00:24:47;;;;;;;10.02;3.40;;;;;;;10.58;46.45;101794.25;687992;28;894;-85
2022/01/30 00:25:15;;;;;;;19.60;4.10;;;;;;;10.55;46.40;101792.41;690169;28;1218;-85
2022/01/30 00:25:51;;;;;;;23.40;4.60;;;;;;;10.65;46.32;101776.34;687876;28;844;-84
2022/01/30 00:26:14;;;;;;;12.63;3.92;;;;;;;10.71;46.32;101780.03;690615;28;1102;-84
2022/01/30 00:26:38;;;;;;;12.48;3.30;;;;;;;10.66;46.16;101783.34;685361;28;970;-85
2022/01/30 00:26:59;;;;;;;14.63;3.50;;;;;;;10.68;46.11;101773.84;691756;28;1177;-84
2022/01/30 00:27:28;;;;;;;17.20;3.50;;;;;;;10.68;45.92;101752.97;690464;28;1043;-84
2022/01/30 00:27:55;;;;;;;12.50;3.70;;;;;;;10.75;45.89;101766.28;690966;28;1225;-84
2022/01/30 00:28:18;;;;;;;10.85;3.60;;;;;;;10.81;45.64;101769.13;682579;29;1041;-84
2022/01/30 00:28:40;;;;;;;12.90;3.30;;;;;;;10.82;45.96;101770.97;682797;29;772;-85
2022/01/30 00:29:01;;;;;;;20.55;4.15;;;;;;;10.72;46.41;101767.03;686305;28;1712;-82
2022/01/30 00:29:21;;;;;;;19.20;4.00;;;;;;;10.71;46.13;101769.59;688067;28;1168;-84
2022/01/30 00:29:42;;;;;;;18.30;4.43;;;;;;;10.79;45.90;101757.75;690123;28;1050;-85
2022/01/30 00:30:03;;;;;;;10.57;3.83;;;;;;;10.80;45.68;101762.13;685065;28;1158;-85
2022/01/30 00:30:24;;;;;;;10.05;3.70;;;;;;;10.72;45.89;101763.53;682468;29;1185;-84
2022/01/30 00:30:45;;;;;;;9.47;3.33;;;;;;;10.60;45.94;101758.66;688002;28;1435;-85
2022/01/30 00:31:05;;;;;;;12.75;3.42;;;;;;;10.59;46.19;101770.84;686932;28;1257;-85
2022/01/30 00:31:27;;;;;;;12.13;3.47;;;;;;;10.64;46.29;101761.47;682712;29;1029;-85
2022/01/30 00:31:47;;;;;;;11.85;3.20;;;;;;;10.63;46.06;101759.69;680143;29;807;-85
2022/01/30 00:32:11;;;;;;;12.05;3.40;;;;;;;10.64;46.08;101763.22;682350;28;1976;-85
2022/01/30 00:32:31;;;;;;;13.27;3.50;;;;;;;10.67;45.97;101756.41;686037;28;1098;-84
2022/01/30 00:32:52;;;;;;;15.27;3.77;;;;;;;10.44;46.40;101749.28;687939;28;1123;-84
2022/01/30 00:33:12;;;;;;;14.05;3.50;;;;;;;10.54;46.28;101756.69;690432;28;1231;-84
2022/01/30 00:33:33;;;;;;;12.43;3.30;;;;;;;10.55;46.34;101768.91;685176;28;1618;-84
2022/01/30 00:33:54;;;;;;;8.97;2.80;;;;;;;10.60;46.18;101762.19;682866;28;1022;-83
2022/01/30 00:34:15;;;;;;;11.75;3.33;;;;;;;10.46;46.37;101758.06;690513;28;1386;-85
2022/01/30 00:34:35;;;;;;;13.90;3.50;;;;;;;10.46;46.49;101763.28;690640;28;1051;-85
2022/01/30 00:34:56;;;;;;;16.95;3.90;;;;;;;10.48;46.40;101761.63;688579;28;1317;-85
2022/01/30 00:35:16;;;;;;;16.47;3.83;;;;;;;10.58;46.34;101763.84;685253;28;958;-85
2022/01/30 00:35:37;;;;;;;17.17;4.72;;;;;;;10.59;46.34;101764.72;685392;28;808;-85
2022/01/30 00:35:59;;;;;;;15.07;4.90;;;;;;;10.60;46.35;101775.22;683416;28;1232;-85
2022/01/30 00:36:19;;;;;;;13.23;4.63;;;;;;;10.67;46.16;101764.25;687834;28;1119;-85
2022/01/30 00:36:40;;;;;;;12.07;3.80;;;;;;;10.75;46.47;101761.94;690408;28;1338;-85
2022/01/30 00:37:02;;;;;;;10.52;3.25;;;;;;;10.73;46.24;101758.38;691445;28;1796;-85
2022/01/30 00:37:23;;;;;;;10.63;3.30;;;;;;;10.68;46.24;101768.63;686844;28;1114;-84
2022/01/30 00:37:48;;;;;;;10.40;3.50;;;;;;;10.60;46.34;101756.06;689734;28;1662;-84
2022/01/30 00:38:15;;;;;;;12.15;3.78;;;;;;;10.61;46.66;101769.19;689838;28;1392;-85
2022/01/30 00:38:35;;;;;;;10.55;3.42;;;;;;;10.63;46.21;101751.84;687547;28;1105;-85
2022/01/30 00:38:56;;;;;;;10.83;2.90;;;;;;;10.65;46.23;101760.69;683859;28;968;-84
2022/01/30 00:39:16;;;;;;;11.48;3.35;;;;;;;10.72;46.39;101773.97;687803;28;1119;-84
2022/01/30 00:39:37;;;;;;;13.85;3.72;;;;;;;10.58;46.42;101757.72;682257;28;807;-85
2022/01/30 00:39:58;;;;;;;17.30;4.60;;;;;;;10.63;46.26;101764.03;688693;28;1278;-84
2022/01/30 00:40:18;;;;;;;15.88;4.38;;;;;;;10.65;46.25;101765.91;693294;28;1389;-84
2022/01/30 00:40:39;;;;;;;15.02;4.45;;;;;;;10.64;46.58;101771.03;687754;28;1500;-85
2022/01/30 00:41:02;;;;;;;14.40;4.30;;;;;;;10.52;46.36;101758.34;684018;28;1444;-85
2022/01/30 00:41:22;;;;;;;19.97;4.80;;;;;;;10.69;46.32;101775.63;685279;28;1140;-84
2022/01/30 00:41:43;;;;;;;21.27;4.82;;;;;;;10.59;46.34;101764.72;688059;28;777;-85
2022/01/30 00:42:04;;;;;;;18.70;4.90;;;;;;;10.59;46.53;101770.84;687843;28;1232;-85
2022/01/30 00:42:24;;;;;;;13.48;4.10;;;;;;;10.74;46.34;101781.06;690572;28;1021;-85
2022/01/30 00:42:45;;;;;;;14.10;3.95;;;;;;;10.50;46.50;101776.53;690794;28;863;-84
2022/01/30 00:43:05;;;;;;;14.27;3.95;;;;;;;10.64;46.45;101766.69;689757;28;1296;-85
2022/01/30 00:43:27;;;;;;;11.45;3.80;;;;;;;10.59;46.31;101765.63;688067;28;1036;-84
2022/01/30 00:43:47;;;;;;;11.82;3.75;;;;;;;10.47;46.74;101792.06;685299;28;1048;-84
2022/01/30 00:44:09;;;;;;;13.75;3.70;;;;;;;10.45;47.10;101779.78;689909;28;1182;-84
2022/01/30 00:44:29;;;;;;;16.77;3.80;;;;;;;10.48;46.97;101772.97;690641;28;1049;-84
2022/01/30 00:44:50;;;;;;;13.90;3.42;;;;;;;10.38;46.91;101758.63;687956;28;1291;-84
2022/01/30 00:45:11;;;;;;;11.43;3.30;;;;;;;10.45;46.75;101787.59;685162;28;1158;-85
2022/01/30 00:45:31;;;;;;;10.20;3.42;;;;;;;10.35;47.01;101774.16;684423;28;1811;-84
2022/01/30 00:45:52;;;;;;;15.65;3.97;;;;;;;10.40;47.16;101787.41;685225;28;982;-84
2022/01/30 00:46:12;;;;;;;17.93;4.00;;;;;;;10.38;47.06;101776.88;687826;28;1050;-84
2022/01/30 00:46:33;;;;;;;19.45;4.03;;;;;;;10.31;46.96;101769.59;687962;28;1422;-84
2022/01/30 00:46:55;;;;;;;17.90;3.90;;;;;;;10.30;47.30;101783.47;690283;28;1249;-84
2022/01/30 00:47:16;;;;;;;13.88;3.55;;;;;;;10.25;47.30;101780.66;690418;28;1217;-84
2022/01/30 00:47:36;;;;;;;14.80;3.50;;;;;;;10.33;47.35;101778.38;682661;29;1350;-85
2022/01/30 00:47:57;;;;;;;11.60;3.60;;;;;;;10.39;46.87;101778.66;686574;28;1196;-84
2022/01/30 00:48:18;;;;;;;14.70;3.72;;;;;;;10.37;47.17;101795.97;693926;28;1451;-84
2022/01/30 00:48:38;;;;;;;15.25;4.00;;;;;;;10.37;47.03;101772.50;690560;28;1682;-85
2022/01/30 00:48:59;;;;;;;15.57;3.77;;;;;;;10.44;46.85;101775.38;693154;28;1258;-85
2022/01/30 00:49:25;;;;;;;15.98;4.03;;;;;;;10.40;46.75;101788.28;687487;28;1283;-85
2022/01/30 00:49:46;;;;;;;18.00;3.80;;;;;;;10.38;46.98;101787.31;684718;28;1380;-85
2022/01/30 00:50:07;;;;;;;17.73;3.83;;;;;;;10.30;47.06;101767.81;687746;28;1131;-85
2022/01/30 00:50:27;;;;;;;18.48;4.05;;;;;;;10.27;46.95;101784.22;682262;28;1819;-85
2022/01/30 00:50:48;;;;;;;19.20;4.55;;;;;;;10.36;47.15;101788.06;687842;28;1319;-84
2022/01/30 00:51:09;;;;;;;21.47;4.57;;;;;;;10.31;47.15;101789.59;687510;28;1347;-84
2022/01/30 00:51:29;;;;;;;22.65;3.95;;;;;;;10.27;47.19;101775.50;693305;28;1003;-85
2022/01/30 00:51:50;;;;;;;18.27;3.30;;;;;;;10.21;47.00;101780.41;687940;28;1089;-85
2022/01/30 00:52:10;;;;;;;15.70;3.50;;;;;;;10.35;47.26;101796.72;693057;28;1972;-85
2022/01/30 00:52:31;;;;;;;14.48;3.90;;;;;;;10.29;46.92;101792.13;687849;28;1197;-85
2022/01/30 00:52:55;;;;;;;14.60;4.15;;;;;;;10.30;47.10;101788.69;687897;28;970;-85
2022/01/30 00:53:15;;;;;;;13.00;3.88;;;;;;;10.24;47.25;101791.91;690487;28;1288;-84
2022/01/30 00:53:38;;;;;;;12.13;3.92;;;;;;;10.32;47.16;101779.19;691204;28;780;-85
2022/01/30 00:53:58;;;;;;;9.13;3.50;;;;;;;10.37;47.19;101793.38;693232;28;1047;-85
2022/01/30 00:54:19;;;;;;;10.43;3.33;;;;;;;10.41;47.06;101803.13;690264;28;1178;-84
2022/01/30 00:54:39;;;;;;;9.90;3.53;;;;;;;10.36;46.60;101788.97;690565;28;1206;-85
2022/01/30 00:55:00;;;;;;;10.23;3.60;;;;;;;10.24;47.08;101789.31;690099;28;1144;-84
2022/01/30 00:55:22;;;;;;;13.30;4.10;;;;;;;10.14;47.09;101787.06;691949;28;1184;-85
2022/01/30 00:55:42;;;;;;;14.23;3.92;;;;;;;10.08;47.33;101785.06;688571;28;1711;-85
2022/01/30 00:56:03;;;;;;;14.60;4.10;;;;;;;10.09;47.50;101805.09;686622;28;1196;-86
2022/01/30 00:56:24;;;;;;;11.88;3.70;;;;;;;10.04;47.37;101785.75;685175;28;1180;-84
2022/01/30 00:56:44;;;;;;;14.90;4.10;;;;;;;10.14;47.51;101797.50;685147;28;1267;-85
2022/01/30 00:57:05;;;;;;;18.77;4.07;;;;;;;10.14;47.20;101787.06;687734;28;1342;-84
2022/01/30 00:57:25;;;;;;;18.10;3.80;;;;;;;10.27;47.09;101802.47;690447;28;1333;-84
2022/01/30 00:57:46;;;;;;;15.80;3.50;;;;;;;10.09;47.33;101786.84;685245;28;1036;-85
2022/01/30 00:58:07;;;;;;;14.32;3.90;;;;;;;10.11;47.40;101790.44;689886;28;1104;-85
2022/01/30 00:58:27;;;;;;;15.57;4.30;;;;;;;10.16;47.19;101798.47;685937;28;1189;-85
2022/01/30 00:58:48;;;;;;;17.10;4.37;;;;;;;10.07;47.46;101785.88;684530;28;1149;-85
2022/01/30 00:59:08;;;;;;;13.23;3.60;;;;;;;10.12;47.44;101792.22;682204;29;1062;-85
2022/01/30 00:59:29;;;;;;;13.40;3.33;;;;;;;9.99;47.27;101777.72;689263;28;1170;-84
2022/01/30 00:59:49;;;;;;;11.25;3.58;;;;;;;10.10;47.19;101790.34;690433;28;1224;-84
2022/01/30 01:00:11;;;;;;;10.87;3.60;;;;;;;10.13;47.13;101790.47;687519;28;1177;-85
2022/01/30 01:00:32;;;;;;;10.70;3.40;;;;;;;10.03;47.55;101789.19;690447;28;1132;-85
2022/01/30 01:00:53;;;;;;;15.52;3.20;;;;;;;10.00;47.28;101773.38;690383;28;1460;-85
2022/01/30 01:01:15;;;;;;;16.95;3.53;;;;;;;10.01;47.63;101780.38;693186;28;1236;-85
2022/01/30 01:01:36;;;;;;;14.93;3.60;;;;;;;10.01;47.34;101782.97;690486;28;1548;-85
2022/01/30 01:01:57;;;;;;;15.82;3.40;;;;;;;9.91;47.31;101781.69;688538;28;1217;-85
2022/01/30 01:02:17;;;;;;;15.43;3.40;;;;;;;9.96;47.47;101793.19;690515;28;1191;-85
2022/01/30 01:02:38;;;;;;;16.00;3.40;;;;;;;9.91;47.99;101792.09;690608;28;1237;-85
2022/01/30 01:03:00;;;;;;;15.43;3.47;;;;;;;9.90;47.73;101784.19;686237;28;1120;-85
2022/01/30 01:03:20;;;;;;;13.85;3.38;;;;;;;9.89;48.00;101798.94;687066;28;1137;-84
2022/01/30 01:03:41;;;;;;;14.90;3.13;;;;;;;9.75;47.80;101782.66;688382;28;791;-84
2022/01/30 01:04:02;;;;;;;13.30;3.20;;;;;;;9.77;47.80;101781.00;692005;28;1179;-85
2022/01/30 01:04:22;;;;;;;16.52;3.60;;;;;;;9.92;47.70;101800.81;690718;28;986;-84
2022/01/30 01:04:44;;;;;;;15.07;3.72;;;;;;;9.90;47.55;101802.47;685136;28;1242;-85
2022/01/30 01:05:06;;;;;;;14.98;3.65;;;;;;;9.81;47.85;101782.94;687004;28;1285;-84
2022/01/30 01:05:28;;;;;;;13.50;3.40;;;;;;;9.92;47.81;101804.31;685176;28;1339;-85
2022/01/30 01:05:50;;;;;;;11.88;3.60;;;;;;;9.94;47.36;101799.19;688875;28;1776;-85
2022/01/30 01:06:12;;;;;;;14.00;3.60;;;;;;;9.80;47.57;101786.38;687832;28;1080;-83
2022/01/30 01:06:32;;;;;;;15.53;3.30;;;;;;;9.77;47.69;101785.34;687760;28;1391;-85
2022/01/30 01:06:53;;;;;;;13.75;3.10;;;;;;;9.80;47.68;101794.19;690537;28;1220;-85
2022/01/30 01:07:19;;;;;;;11.00;3.10;;;;;;;9.73;47.55;101794.72;687859;28;1098;-83
2022/01/30 01:07:45;;;;;;;11.23;3.30;;;;;;;9.78;47.84;101793.25;685903;28;1192;-84
2022/01/30 01:08:18;;;;;;;13.35;3.50;;;;;;;9.86;47.76;101791.91;691191;28;1194;-84
2022/01/30 01:08:58;;;;;;;12.90;3.70;;;;;;;9.86;47.52;101780.56;690667;28;968;-85
2022/01/30 01:09:23;;;;;;;17.58;3.42;;;;;;;9.75;47.65;101793.06;690438;28;1213;-85
2022/01/30 01:09:52;;;;;;;19.20;3.38;;;;;;;9.76;47.88;101804.41;684815;28;785;-85
2022/01/30 01:10:39;;;;;;;13.52;3.10;;;;;;;9.64;48.03;101779.53;690619;28;1050;-84
2022/01/30 01:11:17;;;;;;;11.93;3.40;;;;;;;9.60;48.16;101790.63;687844;28;1883;-85
2022/01/30 01:12:08;;;;;;;14.68;3.10;;;;;;;9.62;47.75;101782.88;689806;28;934;-85
2022/01/30 01:23:52;;;;;;;15.55;3.40;;;;;;;9.22;48.42;101793.13;690567;28;1123;-85
2022/01/30 01:24:12;;;;;;;12.98;3.38;;;;;;;9.24;48.08;101801.94;690599;28;1094;-84
2022/01/30 01:24:33;;;;;;;12.13;3.55;;;;;;;9.26;48.28;101786.34;687552;28;1018;-84
2022/01/30 01:24:54;;;;;;;15.93;4.07;;;;;;;9.24;48.49;101799.31;687792;28;1391;-85
2022/01/30 01:25:14;;;;;;;17.27;4.10;;;;;;;9.24;48.22;101794.13;687844;28;1111;-84
2022/01/30 01:25:35;;;;;;;19.97;3.93;;;;;;;9.22;48.43;101780.09;692318;28;1327;-84
2022/01/30 01:25:57;;;;;;;20.77;3.60;;;;;;;9.25;48.19;101788.09;692428;28;1845;-85
2022/01/30 01:26:20;;;;;;;17.67;3.60;;;;;;;9.26;47.97;101784.66;686925;28;1646;-85
2022/01/30 01:26:40;;;;;;;12.20;3.35;;;;;;;9.33;48.08;101804.09;685163;28;1329;-85
2022/01/30 01:27:01;;;;;;;13.20;3.30;;;;;;;9.31;47.82;101796.22;690548;28;1095;-85
2022/01/30 01:27:21;;;;;;;13.23;3.50;;;;;;;9.22;47.96;101789.63;685116;28;1023;-84
2022/01/30 01:27:42;;;;;;;14.07;3.50;;;;;;;9.29;48.12;101805.63;682593;29;866;-85
2022/01/30 01:28:02;;;;;;;16.27;3.65;;;;;;;9.23;48.02;101799.25;684839;28;1278;-84
2022/01/30 01:28:24;;;;;;;19.90;4.17;;;;;;;9.25;48.06;101793.28;685041;28;1201;-85
2022/01/30 01:28:45;;;;;;;19.88;4.00;;;;;;;9.27;48.05;101799.47;685209;28;1251;-84
2022/01/30 01:29:06;;;;;;;17.80;3.85;;;;;;;9.25;47.80;101790.69;688802;28;1096;-85
2022/01/30 01:29:27;;;;;;;17.42;3.50;;;;;;;9.27;48.06;101798.59;688899;28;1264;-85
2022/01/30 01:29:47;;;;;;;20.92;4.18;;;;;;;9.16;47.97;101805.84;687474;28;792;-85
2022/01/30 01:30:08;;;;;;;18.30;4.47;;;;;;;9.15;47.85;101802.34;690083;28;1175;-85
2022/01/30 01:30:29;;;;;;;16.05;4.30;;;;;;;9.22;48.26;101802.66;687722;28;1397;-85
2022/01/30 01:30:49;;;;;;;13.10;3.67;;;;;;;9.41;47.73;101818.38;689983;28;1179;-84
2022/01/30 01:31:10;;;;;;;11.90;3.42;;;;;;;9.34;47.79;101789.34;687427;28;1623;-85
2022/01/30 01:31:31;;;;;;;15.50;3.45;;;;;;;9.41;47.82;101799.28;687743;28;1130;-85
2022/01/30 01:31:53;;;;;;;19.00;3.67;;;;;;;9.45;47.88;101814.22;687846;28;1092;-85
2022/01/30 01:32:14;;;;;;;20.60;3.60;;;;;;;9.43;47.78;101816.78;687670;28;1899;-84
2022/01/30 01:32:34;;;;;;;15.20;3.75;;;;;;;9.52;47.84;101813.69;687835;28;1263;-83
2022/01/30 01:32:55;;;;;;;11.67;3.70;;;;;;;9.49;47.51;101803.13;691038;28;1147;-85
2022/01/30 01:33:16;;;;;;;10.90;3.65;;;;;;;9.36;47.45;101808.56;687679;28;1014;-84
2022/01/30 01:34:31;;;;;;;10.38;2.85;;;;;;;9.59;47.06;101812.31;687665;28;1093;-84
2022/01/30 01:34:52;;;;;;;12.52;3.10;;;;;;;9.70;47.37;101815.41;687786;28;1591;-85
2022/01/30 01:35:12;;;;;;;13.27;3.45;;;;;;;9.71;47.03;101814.63;685026;28;1184;-85
2022/01/30 01:35:33;;;;;;;16.02;3.58;;;;;;;9.75;47.11;101813.94;685256;28;850;-85
2022/01/30 01:35:54;;;;;;;13.77;3.20;;;;;;;9.81;47.09;101809.03;687245;28;1925;-85
2022/01/30 01:36:14;;;;;;;15.20;3.10;;;;;;;9.82;46.77;101802.97;690470;28;1109;-85
2022/01/30 01:36:36;;;;;;;12.77;2.80;;;;;;;9.78;46.72;101806.28;687788;28;1269;-85
2022/01/30 01:36:57;;;;;;;11.27;3.00;;;;;;;9.83;46.51;101807.38;684957;28;1383;-85
2022/01/30 01:37:18;;;;;;;7.47;2.80;;;;;;;9.79;46.58;101815.88;687650;28;1380;-85
2022/01/30 01:37:39;;;;;;;8.65;3.08;;;;;;;9.76;46.91;101804.41;687771;28;1068;-85
2022/01/30 01:38:00;;;;;;;10.57;3.30;;;;;;;9.79;46.84;101813.28;687813;28;1067;-85
2022/01/30 01:38:21;;;;;;;12.77;3.40;;;;;;;9.82;46.87;101826.44;687697;28;1230;-85
2022/01/30 01:38:42;;;;;;;12.82;3.90;;;;;;;9.78;46.66;101810.59;687770;28;1321;-86
2022/01/30 01:39:03;;;;;;;13.20;3.60;;;;;;;9.72;46.94;101808.59;687729;28;1384;-85
2022/01/30 01:39:24;;;;;;;14.18;3.97;;;;;;;9.82;46.51;101815.09;684810;28;939;-85
2022/01/30 01:39:45;;;;;;;11.73;3.10;;;;;;;9.84;46.88;101823.94;690027;28;1279;-85
2022/01/30 01:40:06;;;;;;;11.23;3.17;;;;;;;9.75;46.71;101813.94;690370;28;1223;-85
2022/01/30 01:40:26;;;;;;;15.15;2.95;;;;;;;9.74;46.58;101812.16;690072;28;1744;-85
2022/01/30 01:40:55;;;;;;;18.10;3.00;;;;;;;9.76;46.78;101820.06;689375;28;1197;-85
2022/01/30 01:41:19;;;;;;;20.30;3.20;;;;;;;9.77;46.75;101812.28;687771;28;1211;-84
2022/01/30 01:41:39;;;;;;;16.85;3.28;;;;;;;9.89;46.58;101817.19;682515;29;840;-85
2022/01/30 01:42:00;;;;;;;17.20;3.50;;;;;;;9.84;46.62;101813.50;687808;28;1184;-85
2022/01/30 01:42:20;;;;;;;11.00;3.30;;;;;;;9.79;46.80;101810.66;687511;28;1348;-85
2022/01/30 01:42:41;;;;;;;10.13;3.30;;;;;;;9.81;46.78;101813.31;685171;28;1301;-85
2022/01/30 01:43:02;;;;;;;13.40;3.20;;;;;;;9.82;46.76;101816.03;687712;28;1241;-85
2022/01/30 01:43:25;;;;;;;13.77;3.20;;;;;;;9.71;46.81;101799.84;690429;28;1441;-85
2022/01/30 01:43:48;;;;;;;11.45;3.13;;;;;;;9.91;46.91;101819.88;687943;28;877;-84
2022/01/30 01:44:24;;;;;;;9.32;3.17;;;;;;;9.76;46.92;101807.03;690334;28;1222;-85
2022/01/30 01:44:49;;;;;;;10.18;3.00;;;;;;;9.84;46.81;101813.50;687953;28;780;-84
2022/01/30 01:45:10;;;;;;;15.65;3.40;;;;;;;9.75;47.01;101820.88;685129;28;1160;-86
2022/01/30 01:45:35;;;;;;;18.25;3.55;;;;;;;9.68;46.89;101811.84;686373;28;1524;-85
2022/01/30 01:45:58;;;;;;;15.80;3.35;;;;;;;9.65;46.84;101806.50;688463;28;1060;-84
2022/01/30 01:46:25;;;;;;;15.75;3.22;;;;;;;9.62;47.02;101795.91;692898;28;1784;-85
2022/01/30 01:46:46;;;;;;;16.90;3.55;;;;;;;9.72;46.90;101811.19;687914;28;865;-84
2022/01/30 01:47:10;;;;;;;16.20;3.55;;;;;;;9.54;46.81;101812.09;687146;28;1193;-85
2022/01/30 01:47:33;;;;;;;15.12;3.80;;;;;;;9.63;46.80;101813.34;690392;28;1239;-85
2022/01/30 01:47:53;;;;;;;17.60;3.83;;;;;;;9.54;46.92;101800.75;690396;28;1189;-86
2022/01/30 01:48:15;;;;;;;18.15;4.40;;;;;;;9.47;46.69;101807.38;690048;28;1176;-84
2022/01/30 01:48:36;;;;;;;16.30;4.30;;;;;;;9.49;46.97;101804.84;690361;28;1127;-84
2022/01/30 01:48:56;;;;;;;12.65;3.63;;;;;;;9.37;47.09;101800.81;693250;28;1247;-85
2022/01/30 01:49:26;;;;;;;12.48;2.80;;;;;;;9.44;47.09;101809.81;693208;28;1090;-85
2022/01/30 01:49:50;;;;;;;14.40;2.90;;;;;;;9.45;46.91;101817.72;687475;28;788;-84
2022/01/30 01:50:17;;;;;;;12.73;3.03;;;;;;;9.32;47.05;101799.69;687808;28;1356;-85
2022/01/30 01:50:39;;;;;;;11.93;3.70;;;;;;;9.32;47.35;101803.22;684981;28;1399;-85
2022/01/30 01:51:13;;;;;;;11.70;3.80;;;;;;;9.38;47.22;101809.50;686456;28;1213;-85
2022/01/30 01:51:35;;;;;;;11.43;3.20;;;;;;;9.28;47.44;101810.78;687842;28;1211;-85
2022/01/30 01:52:31;;;;;;;12.60;3.10;;;;;;;9.28;47.22;101808.19;685141;28;1064;-85
2022/01/30 01:52:45;;;;;;;11.02;3.20;;;;;;;9.35;47.15;101807.69;688851;28;1009;-84
2022/01/30 01:53:10;;;;;;;11.73;3.47;;;;;;;9.27;47.24;101809.00;685101;28;1134;-85
2022/01/30 01:53:32;;;;;;;12.20;3.30;;;;;;;9.32;47.56;101808.41;687783;28;1148;-85
2022/01/30 01:53:57;;;;;;;12.60;3.72;;;;;;;9.29;47.37;101800.44;684623;28;1303;-85
2022/01/30 01:54:18;;;;;;;11.60;3.40;;;;;;;9.36;47.41;101806.84;682205;29;1285;-85
2022/01/30 01:54:39;;;;;;;13.27;3.50;;;;;;;9.34;47.20;101811.06;685048;28;791;-85
2022/01/30 01:55:00;;;;;;;11.38;3.00;;;;;;;9.32;47.01;101803.22;687719;28;1199;-85
2022/01/30 01:55:21;;;;;;;11.75;2.95;;;;;;;9.38;47.07;101819.94;685018;28;1072;-84
2022/01/30 01:55:43;;;;;;;10.48;2.92;;;;;;;9.42;47.26;101820.19;687784;28;858;-84
2022/01/30 01:56:14;;;;;;;12.40;3.30;;;;;;;9.42;46.80;101814.06;685044;28;1084;-85
2022/01/30 01:56:38;;;;;;;13.35;3.13;;;;;;;9.36;47.25;101803.34;685231;28;748;-85
2022/01/30 01:57:10;;;;;;;13.10;2.90;;;;;;;9.31;47.05;101817.06;693470;28;1293;-85
2022/01/30 01:57:38;;;;;;;15.10;3.08;;;;;;;9.37;47.17;101815.53;687722;28;1295;-85
2022/01/30 01:58:18;;;;;;;12.88;3.00;;;;;;;9.39;47.22;101819.16;688006;28;1072;-85
2022/01/30 01:58:57;;;;;;;11.70;3.03;;;;;;;9.39;46.97;101819.16;691139;28;1251;-85
2022/01/30 01:59:25;;;;;;;16.25;3.10;;;;;;;9.38;47.03;101827.75;689041;28;1095;-85
2022/01/30 02:00:06;;;;;;;13.10;3.42;;;;;;;9.17;47.35;101818.06;688467;28;1304;-85
2022/01/30 02:00:36;;;;;;;12.38;3.28;;;;;;;9.24;47.16;101833.19;686786;28;1818;-85
2022/01/30 02:00:59;;;;;;;11.85;3.20;;;;;;;9.26;47.41;101823.72;687838;28;1048;-85
2022/01/30 02:01:20;;;;;;;13.32;3.00;;;;;;;9.14;47.16;101823.09;687779;28;1196;-85
2022/01/30 02:01:41;;;;;;;13.18;2.80;;;;;;;9.18;47.16;101820.75;687835;28;1212;-85
2022/01/30 02:02:03;;;;;;;10.93;2.63;;;;;;;9.12;47.25;101810.03;691825;28;1106;-85
2022/01/30 02:02:25;;;;;;;11.68;3.30;;;;;;;9.06;47.30;101809.69;687772;28;1373;-85
2022/01/30 02:02:45;;;;;;;11.63;3.45;;;;;;;9.05;47.19;101823.53;684955;28;1384;-85